createdAt,value
2023-05-21T00:00:51.636Z,100.00
2023-05-21T00:03:18.498Z,100.00
2023-05-21T00:05:47.309Z,100.00
2023-05-21T00:08:14.290Z,100.00
2023-05-21T00:10:40.988Z,100.00
2023-05-21T00:13:09.113Z,100.00
2023-05-21T00:15:36.312Z,100.00
2023-05-21T00:18:03.702Z,100.00
2023-05-21T00:20:32.386Z,100.00
2023-05-21T00:22:59.846Z,100.00
2023-05-21T00:25:26.452Z,100.00
2023-05-21T00:27:54.428Z,100.00
2023-05-21T00:30:21.151Z,100.00
2023-05-21T00:32:47.886Z,100.00
2023-05-21T00:35:14.858Z,100.00
2023-05-21T00:37:41.511Z,100.00
2023-05-21T00:40:09.306Z,100.00
2023-05-21T00:42:39.528Z,100.00
2023-05-21T00:45:07.664Z,100.00
2023-05-21T00:47:35.231Z,100.00
2023-05-21T00:50:04.050Z,100.00
2023-05-21T00:52:31.144Z,100.00
2023-05-21T00:54:57.943Z,100.00
2023-05-21T00:57:27.325Z,100.00
2023-05-21T00:59:54.289Z,100.00
2023-05-21T01:02:24.112Z,100.00
2023-05-21T01:04:54.651Z,100.00
2023-05-21T01:07:21.941Z,100.00
2023-05-21T01:09:48.768Z,100.00
2023-05-21T01:12:17.755Z,100.00
2023-05-21T01:14:45.213Z,100.00
2023-05-21T01:17:13.066Z,100.00
2023-05-21T01:19:39.980Z,100.00
2023-05-21T01:22:07.935Z,100.00
2023-05-21T01:24:35.048Z,100.00
2023-05-21T01:27:03.257Z,100.00
2023-05-21T01:29:29.932Z,100.00
2023-05-21T01:32:16.445Z,100.00
2023-05-21T01:34:56.050Z,100.00
2023-05-21T01:37:48.902Z,100.00
2023-05-21T01:40:21.675Z,100.00
2023-05-21T01:42:48.620Z,100.00
2023-05-21T01:45:16.750Z,100.00
2023-05-21T01:47:47.807Z,100.00
2023-05-21T01:50:15.800Z,98.45
2023-05-21T01:52:51.442Z,97.89
2023-05-21T01:55:18.649Z,95.92
2023-05-21T01:57:45.594Z,94.37
2023-05-21T02:00:13.726Z,94.99
2023-05-21T02:02:40.396Z,93.43
2023-05-21T02:05:08.787Z,92.36
2023-05-21T02:07:35.498Z,94.40
2023-05-21T02:10:02.099Z,94.08
2023-05-21T02:12:29.543Z,94.83
2023-05-21T02:14:56.438Z,93.74
2023-05-21T02:17:24.411Z,92.65
2023-05-21T02:19:50.994Z,92.04
2023-05-21T02:22:17.884Z,91.12
2023-05-21T02:24:44.598Z,88.86
2023-05-21T02:27:13.510Z,86.28
2023-05-21T02:29:40.095Z,85.62
2023-05-21T02:32:07.057Z,83.45
2023-05-21T02:34:35.049Z,83.50
2023-05-21T02:37:01.834Z,80.13
2023-05-21T02:39:28.562Z,77.40
2023-05-21T02:41:55.152Z,77.07
2023-05-21T02:44:24.070Z,74.88
2023-05-21T02:46:50.856Z,73.00
2023-05-21T02:49:17.498Z,71.25
2023-05-21T02:51:44.085Z,69.89
2023-05-21T02:54:10.690Z,68.80
2023-05-21T02:56:37.271Z,69.47
2023-05-21T02:59:03.963Z,69.71
2023-05-21T03:01:30.585Z,70.22
2023-05-21T03:03:57.259Z,69.64
2023-05-21T03:06:23.875Z,68.42
2023-05-21T03:08:50.532Z,68.13
2023-05-21T03:11:19.162Z,68.51
2023-05-21T03:13:45.957Z,68.71
2023-05-21T03:16:12.758Z,68.77
2023-05-21T03:18:39.422Z,68.15
2023-05-21T03:21:06.055Z,69.14
2023-05-21T03:23:32.731Z,69.69
2023-05-21T03:25:59.364Z,69.79
2023-05-21T03:28:26.011Z,68.74
2023-05-21T03:30:53.394Z,69.00
2023-05-21T03:33:20.083Z,69.67
2023-05-21T03:35:46.692Z,70.07
2023-05-21T03:38:13.363Z,69.84
2023-05-21T03:40:40.040Z,70.28
2023-05-21T03:43:06.962Z,71.17
2023-05-21T03:45:33.744Z,71.50
2023-05-21T03:48:02.015Z,71.49
2023-05-21T03:50:28.770Z,70.67
2023-05-21T03:52:55.477Z,69.02
2023-05-21T03:55:22.414Z,67.89
2023-05-21T03:57:49.014Z,68.04
2023-05-21T04:00:15.958Z,67.91
2023-05-21T04:02:42.738Z,67.57
2023-05-21T04:05:09.676Z,66.98
2023-05-21T04:07:38.315Z,67.31
2023-05-21T04:10:05.413Z,66.77
2023-05-21T04:12:32.156Z,65.17
2023-05-21T04:14:58.854Z,65.12
2023-05-21T04:17:27.100Z,64.42
2023-05-21T04:19:54.418Z,64.23
2023-05-21T04:22:21.741Z,60.73
2023-05-21T04:24:48.877Z,61.74
2023-05-21T04:27:16.823Z,61.28
2023-05-21T04:29:43.485Z,58.57
2023-05-21T04:32:10.142Z,57.80
2023-05-21T04:34:36.763Z,58.92
2023-05-21T04:37:03.492Z,54.98
2023-05-21T04:39:31.609Z,55.92
2023-05-21T04:41:58.194Z,53.84
2023-05-21T04:44:24.858Z,53.52
2023-05-21T04:46:52.742Z,52.42
2023-05-21T04:49:21.018Z,52.44
2023-05-21T04:51:49.404Z,50.59
2023-05-21T04:54:16.026Z,50.29
2023-05-21T04:56:42.657Z,49.50
2023-05-21T04:59:09.267Z,50.76
2023-05-21T05:01:38.464Z,50.63
2023-05-21T05:04:06.126Z,50.41
2023-05-21T05:06:32.900Z,50.86
2023-05-21T05:08:59.497Z,51.33
2023-05-21T05:11:26.665Z,51.24
2023-05-21T05:13:53.365Z,50.52
2023-05-21T05:16:25.112Z,50.95
2023-05-21T05:18:52.791Z,50.88
2023-05-21T05:21:21.816Z,50.28
2023-05-21T05:23:48.485Z,50.25
2023-05-21T05:26:15.127Z,51.21
2023-05-21T05:28:41.850Z,50.75
2023-05-21T05:31:08.973Z,52.14
2023-05-21T05:33:35.737Z,51.38
2023-05-21T05:36:02.426Z,51.56
2023-05-21T05:38:29.005Z,50.91
2023-05-21T05:40:55.739Z,50.11
2023-05-21T05:43:22.332Z,50.74
2023-05-21T05:45:48.972Z,50.50
2023-05-21T05:48:16.845Z,50.92
2023-05-21T05:50:44.423Z,49.99
2023-05-21T05:53:13.382Z,50.80
2023-05-21T05:55:40.931Z,51.16
2023-05-21T05:58:07.650Z,51.20
2023-05-21T06:00:34.280Z,51.25
2023-05-21T06:03:01.063Z,50.12
2023-05-21T06:05:27.818Z,50.97
2023-05-21T06:07:54.442Z,50.61
2023-05-21T06:10:21.165Z,51.94
2023-05-21T06:12:48.023Z,49.44
2023-05-21T06:15:19.480Z,50.25
2023-05-21T06:17:46.263Z,49.34
2023-05-21T06:20:13.117Z,49.84
2023-05-21T06:22:39.800Z,49.78
2023-05-21T06:25:07.203Z,49.61
2023-05-21T06:27:33.864Z,48.29
2023-05-21T06:30:00.583Z,47.79
2023-05-21T06:32:27.342Z,47.34
2023-05-21T06:34:53.990Z,47.39
2023-05-21T06:37:21.715Z,48.31
2023-05-21T06:39:48.417Z,48.26
2023-05-21T06:42:15.107Z,48.74
2023-05-21T06:44:42.180Z,47.02
2023-05-21T06:47:08.773Z,47.52
2023-05-21T06:49:35.444Z,46.34
2023-05-21T06:52:02.280Z,46.48
2023-05-21T06:54:29.037Z,46.20
2023-05-21T06:56:55.855Z,47.34
2023-05-21T06:59:22.517Z,46.86
2023-05-21T07:01:49.280Z,47.61
2023-05-21T07:04:16.032Z,48.46
2023-05-21T07:06:42.653Z,47.77
2023-05-21T07:09:10.269Z,46.06
2023-05-21T07:11:36.887Z,47.68
2023-05-21T07:14:04.078Z,47.85
2023-05-21T07:16:30.770Z,47.65
2023-05-21T07:18:57.509Z,48.27
2023-05-21T07:21:24.390Z,48.02
2023-05-21T07:23:51.018Z,47.03
2023-05-21T07:26:17.761Z,47.70
2023-05-21T07:28:45.202Z,46.99
2023-05-21T07:31:12.469Z,46.85
2023-05-21T07:33:39.261Z,47.16
2023-05-21T07:36:06.758Z,47.48
2023-05-21T07:38:33.577Z,45.51
2023-05-21T07:41:00.213Z,46.45
2023-05-21T07:43:26.844Z,45.69
2023-05-21T07:45:53.509Z,45.25
2023-05-21T07:48:20.219Z,45.50
2023-05-21T07:50:49.651Z,44.74
2023-05-21T07:53:16.384Z,45.31
2023-05-21T07:55:47.885Z,45.36
2023-05-21T07:58:17.060Z,45.13
2023-05-21T08:00:45.344Z,46.83
2023-05-21T08:03:12.030Z,45.35
2023-05-21T08:05:39.043Z,46.73
2023-05-21T08:08:05.847Z,46.38
2023-05-21T08:10:32.428Z,45.33
2023-05-21T08:12:59.028Z,45.31
2023-05-21T08:15:25.701Z,46.89
2023-05-21T08:17:52.363Z,46.20
2023-05-21T08:20:20.495Z,44.37
2023-05-21T08:22:48.366Z,44.39
2023-05-21T08:25:15.058Z,46.14
2023-05-21T08:27:42.698Z,46.73
2023-05-21T08:30:11.536Z,45.71
2023-05-21T08:32:38.240Z,46.47
2023-05-21T08:35:06.076Z,45.97
2023-05-21T08:37:32.912Z,44.92
2023-05-21T08:39:59.618Z,43.76
2023-05-21T08:42:45.986Z,44.33
2023-05-21T08:45:14.586Z,43.10
2023-05-21T08:47:43.998Z,44.01
2023-05-21T08:50:13.438Z,41.83
2023-05-21T08:52:41.241Z,41.65
2023-05-21T08:55:09.056Z,40.08
2023-05-21T08:57:36.762Z,40.53
2023-05-21T09:00:07.165Z,42.35
2023-05-21T09:02:35.109Z,42.22
2023-05-21T09:05:03.455Z,41.22
2023-05-21T09:07:31.785Z,41.71
2023-05-21T09:10:05.189Z,40.92
2023-05-21T09:12:32.049Z,39.66
2023-05-21T09:15:00.337Z,40.02
2023-05-21T09:17:27.203Z,40.88
2023-05-21T09:20:16.270Z,40.35
2023-05-21T09:22:51.467Z,40.25
2023-05-21T09:25:24.912Z,41.97
2023-05-21T09:27:51.514Z,42.05
2023-05-21T09:30:20.865Z,42.85
2023-05-21T09:32:58.293Z,43.06
2023-05-21T09:35:25.672Z,43.37
2023-05-21T09:37:53.523Z,43.10
2023-05-21T09:40:21.675Z,43.70
2023-05-21T09:42:50.268Z,44.36
2023-05-21T09:45:21.544Z,43.43
2023-05-21T09:47:49.955Z,42.38
2023-05-21T09:50:21.885Z,43.18
2023-05-21T09:52:52.795Z,44.27
2023-05-21T09:55:23.618Z,45.00
2023-05-21T09:57:51.024Z,44.96
2023-05-21T10:00:22.412Z,43.99
2023-05-21T10:02:53.965Z,44.02
2023-05-21T10:05:21.171Z,43.20
2023-05-21T10:07:53.640Z,41.77
2023-05-21T10:10:24.644Z,42.01
2023-05-21T10:13:12.757Z,40.05
2023-05-21T10:15:43.945Z,39.58
2023-05-21T10:18:12.468Z,39.63
2023-05-21T10:20:40.071Z,38.85
2023-05-21T10:23:07.699Z,38.56
2023-05-21T10:25:36.227Z,38.38
2023-05-21T10:28:03.508Z,40.10
2023-05-21T10:30:30.210Z,39.87
2023-05-21T10:32:57.496Z,39.56
2023-05-21T10:35:24.768Z,40.77
2023-05-21T10:37:52.992Z,39.22
2023-05-21T10:40:20.541Z,38.21
2023-05-21T10:43:21.862Z,38.20
2023-05-21T10:46:07.529Z,38.56
2023-05-21T10:48:39.975Z,39.58
2023-05-21T10:51:25.073Z,40.00
2023-05-21T10:54:10.544Z,40.41
2023-05-21T10:57:00.142Z,40.11
2023-05-21T10:59:49.429Z,41.32
2023-05-21T11:02:17.911Z,41.21
2023-05-21T11:04:45.420Z,40.90
2023-05-21T11:07:13.243Z,40.46
2023-05-21T11:09:39.945Z,40.62
2023-05-21T11:12:08.211Z,38.58
2023-05-21T11:14:40.266Z,39.43
2023-05-21T11:17:09.696Z,38.16
2023-05-21T11:19:51.393Z,37.90
2023-05-21T11:22:22.069Z,38.06
2023-05-21T11:24:51.117Z,40.53
2023-05-21T11:27:37.604Z,39.98
2023-05-21T11:30:17.385Z,42.38
2023-05-21T11:33:10.101Z,43.19
2023-05-21T11:35:39.175Z,43.71
2023-05-21T11:38:09.319Z,43.93
2023-05-21T11:40:36.438Z,43.43
2023-05-21T11:43:03.428Z,43.38
2023-05-21T11:45:32.622Z,44.21
2023-05-21T11:48:00.692Z,44.41
2023-05-21T11:50:30.616Z,44.63
2023-05-21T11:52:57.884Z,44.77
2023-05-21T11:55:26.068Z,45.47
2023-05-21T11:57:54.607Z,46.10
2023-05-21T12:00:21.713Z,47.76
2023-05-21T12:02:52.497Z,47.75
2023-05-21T12:05:19.463Z,47.75
2023-05-21T12:07:48.953Z,47.51
2023-05-21T12:10:15.863Z,48.21
2023-05-21T12:12:53.878Z,47.93
2023-05-21T12:15:22.822Z,49.23
2023-05-21T12:17:51.140Z,51.66
2023-05-21T12:20:17.960Z,56.87
2023-05-21T12:22:44.881Z,63.36
2023-05-21T12:25:12.398Z,68.32
2023-05-21T12:27:39.394Z,70.07
2023-05-21T12:30:06.951Z,73.36
2023-05-21T12:32:35.035Z,78.36
2023-05-21T12:35:02.733Z,79.56
2023-05-21T12:37:32.453Z,79.57
2023-05-21T12:40:01.442Z,80.50
2023-05-21T12:42:34.782Z,82.52
2023-05-21T12:45:06.807Z,85.60
2023-05-21T12:47:33.805Z,85.94
2023-05-21T12:50:02.312Z,88.69
2023-05-21T12:52:30.833Z,87.78
2023-05-21T12:54:58.670Z,83.33
2023-05-21T12:57:38.921Z,83.96
2023-05-21T13:00:07.296Z,83.16
2023-05-21T13:02:41.144Z,84.05
2023-05-21T13:05:17.478Z,84.44
2023-05-21T13:07:46.851Z,84.21
2023-05-21T13:10:16.532Z,84.53
2023-05-21T13:12:44.555Z,85.89
2023-05-21T13:15:12.059Z,83.81
2023-05-21T13:17:38.938Z,85.02
2023-05-21T13:20:16.139Z,85.06
2023-05-21T13:22:52.727Z,83.77
2023-05-21T13:25:25.058Z,83.25
2023-05-21T13:27:53.736Z,84.53
2023-05-21T13:30:21.692Z,84.58
2023-05-21T13:32:48.814Z,83.84
2023-05-21T13:35:16.756Z,82.01
2023-05-21T13:37:44.043Z,85.70
2023-05-21T13:40:12.507Z,83.17
2023-05-21T13:42:39.258Z,86.28
2023-05-21T13:45:11.032Z,85.93
2023-05-21T13:47:40.284Z,87.68
2023-05-21T13:50:08.439Z,91.82
2023-05-21T13:52:35.412Z,88.30
2023-05-21T13:55:02.205Z,89.20
2023-05-21T13:57:30.885Z,87.10
2023-05-21T13:59:58.432Z,86.51
2023-05-21T14:02:25.472Z,78.28
2023-05-21T14:04:52.232Z,75.88
2023-05-21T14:07:19.051Z,71.28
2023-05-21T14:09:47.490Z,69.42
2023-05-21T14:12:14.249Z,70.49
2023-05-21T14:14:41.513Z,69.04
2023-05-21T14:17:08.212Z,63.31
2023-05-21T14:19:34.881Z,64.26
2023-05-21T14:22:01.522Z,62.24
2023-05-21T14:24:28.208Z,61.25
2023-05-21T14:26:54.868Z,62.02
2023-05-21T14:29:21.474Z,59.74
2023-05-21T14:31:48.604Z,55.12
2023-05-21T14:34:15.418Z,55.28
2023-05-21T14:36:42.100Z,55.38
2023-05-21T14:39:08.697Z,55.95
2023-05-21T14:41:39.195Z,52.91
2023-05-21T14:44:05.870Z,51.42
2023-05-21T14:46:32.671Z,49.37
2023-05-21T14:49:00.243Z,49.10
2023-05-21T14:51:26.898Z,47.19
2023-05-21T14:53:53.592Z,46.25
2023-05-21T14:56:22.183Z,44.46
2023-05-21T14:58:49.199Z,43.84
2023-05-21T15:01:15.927Z,41.46
2023-05-21T15:03:42.786Z,40.22
2023-05-21T15:06:09.853Z,40.92
2023-05-21T15:08:36.508Z,41.93
2023-05-21T15:11:03.120Z,43.66
2023-05-21T15:13:29.795Z,42.42
2023-05-21T15:15:56.617Z,38.87
2023-05-21T15:18:24.864Z,38.11
2023-05-21T15:20:51.988Z,37.21
2023-05-21T15:23:18.792Z,38.04
2023-05-21T15:25:45.799Z,38.17
2023-05-21T15:28:12.720Z,37.92
2023-05-21T15:30:39.754Z,40.56
2023-05-21T15:33:06.567Z,40.26
2023-05-21T15:35:35.089Z,39.26
2023-05-21T15:38:01.939Z,38.66
2023-05-21T15:40:28.569Z,36.84
2023-05-21T15:42:55.138Z,37.12
2023-05-21T15:45:21.858Z,38.40
2023-05-21T15:47:48.772Z,39.89
2023-05-21T15:50:15.684Z,42.47
2023-05-21T15:52:42.734Z,43.54
2023-05-21T15:55:09.901Z,44.81
2023-05-21T15:57:36.592Z,44.64
2023-05-21T16:00:04.931Z,44.43
2023-05-21T16:02:31.609Z,44.77
2023-05-21T16:04:58.360Z,43.50
2023-05-21T16:07:25.069Z,42.47
2023-05-21T16:09:51.695Z,43.42
2023-05-21T16:12:18.378Z,45.42
2023-05-21T16:14:48.454Z,46.46
2023-05-21T16:17:15.154Z,48.51
2023-05-21T16:19:41.810Z,49.66
2023-05-21T16:22:10.643Z,49.42
2023-05-21T16:24:37.575Z,50.86
2023-05-21T16:27:05.038Z,50.91
2023-05-21T16:29:31.952Z,52.91
2023-05-21T16:31:58.750Z,50.45
2023-05-21T16:34:25.712Z,50.50
2023-05-21T16:36:52.495Z,48.08
2023-05-21T16:39:19.104Z,49.12
2023-05-21T16:41:45.775Z,49.38
2023-05-21T16:44:12.375Z,51.36
2023-05-21T16:46:39.022Z,52.34
2023-05-21T16:49:05.728Z,52.47
2023-05-21T16:51:32.425Z,54.07
2023-05-21T16:53:59.016Z,54.28
2023-05-21T16:56:27.253Z,54.27
2023-05-21T16:58:53.842Z,54.70
2023-05-21T17:01:20.743Z,55.09
2023-05-21T17:03:47.516Z,55.10
2023-05-21T17:06:14.966Z,55.09
2023-05-21T17:08:42.748Z,56.52
2023-05-21T17:11:09.834Z,57.51
2023-05-21T17:13:36.612Z,56.75
2023-05-21T17:16:03.343Z,56.28
2023-05-21T17:18:31.315Z,57.79
2023-05-21T17:20:59.132Z,57.95
2023-05-21T17:23:26.121Z,58.91
2023-05-21T17:25:52.881Z,58.20
2023-05-21T17:28:19.827Z,58.63
2023-05-21T17:30:48.717Z,58.08
2023-05-21T17:33:16.453Z,57.84
2023-05-21T17:35:43.175Z,58.03
2023-05-21T17:38:10.396Z,58.86
2023-05-21T17:40:37.156Z,60.12
2023-05-21T17:43:05.094Z,61.11
2023-05-21T17:45:31.936Z,62.25
2023-05-21T17:48:00.376Z,63.21
2023-05-21T17:50:27.270Z,63.37
2023-05-21T17:52:53.888Z,64.56
2023-05-21T17:55:20.851Z,67.80
2023-05-21T17:57:47.440Z,69.83
2023-05-21T18:00:14.249Z,71.70
2023-05-21T18:02:41.401Z,72.79
2023-05-21T18:05:08.666Z,74.75
2023-05-21T18:07:35.802Z,77.64
2023-05-21T18:10:02.451Z,79.36
2023-05-21T18:12:29.149Z,80.87
2023-05-21T18:14:55.881Z,81.68
2023-05-21T18:17:22.649Z,83.46
2023-05-21T18:19:51.001Z,83.51
2023-05-21T18:22:17.699Z,83.78
2023-05-21T18:24:44.640Z,82.92
2023-05-21T18:27:12.409Z,82.52
2023-05-21T18:29:39.051Z,82.61
2023-05-21T18:32:06.450Z,82.12
2023-05-21T18:34:33.400Z,83.53
2023-05-21T18:37:00.560Z,84.24
2023-05-21T18:39:28.182Z,85.26
2023-05-21T18:42:11.312Z,85.00
2023-05-21T18:44:39.373Z,86.43
2023-05-21T18:47:07.805Z,86.29
2023-05-21T18:49:36.226Z,85.56
2023-05-21T18:52:04.417Z,86.55
2023-05-21T18:54:31.424Z,86.13
2023-05-21T18:57:00.855Z,86.07
2023-05-21T18:59:29.348Z,86.86
2023-05-21T19:01:56.331Z,87.41
2023-05-21T19:04:23.112Z,87.72
2023-05-21T19:06:50.045Z,87.01
2023-05-21T19:09:17.072Z,87.88
2023-05-21T19:11:44.089Z,88.78
2023-05-21T19:14:10.952Z,89.47
2023-05-21T19:16:37.904Z,90.73
2023-05-21T19:19:04.904Z,93.11
2023-05-21T19:21:32.525Z,93.58
2023-05-21T19:23:59.314Z,92.90
2023-05-21T19:26:26.107Z,93.38
2023-05-21T19:28:54.545Z,93.01
2023-05-21T19:31:22.931Z,93.22
2023-05-21T19:33:50.085Z,93.46
2023-05-21T19:36:17.019Z,92.94
2023-05-21T19:38:50.856Z,91.60
2023-05-21T19:41:18.782Z,90.43
2023-05-21T19:43:46.205Z,92.17
2023-05-21T19:46:17.242Z,91.22
2023-05-21T19:48:45.971Z,91.93
2023-05-21T19:51:13.335Z,93.52
2023-05-21T19:53:40.065Z,93.83
2023-05-21T19:56:07.732Z,92.71
2023-05-21T19:58:34.520Z,94.06
2023-05-21T20:01:01.501Z,93.13
2023-05-21T20:03:32.219Z,92.64
2023-05-21T20:05:59.166Z,92.26
2023-05-21T20:08:25.868Z,92.62
2023-05-21T20:10:52.613Z,92.76
2023-05-21T20:13:21.418Z,92.14
2023-05-21T20:15:48.201Z,91.57
2023-05-21T20:18:15.662Z,90.82
2023-05-21T20:20:43.089Z,90.72
2023-05-21T20:23:09.844Z,89.78
2023-05-21T20:25:36.582Z,90.20
2023-05-21T20:28:04.181Z,89.49
2023-05-21T20:30:36.389Z,89.37
2023-05-21T20:33:04.111Z,89.13
2023-05-21T20:35:31.129Z,90.73
2023-05-21T20:37:57.812Z,91.07
2023-05-21T20:40:24.698Z,91.38
2023-05-21T20:42:53.535Z,91.62
2023-05-21T20:45:21.192Z,90.51
2023-05-21T20:47:48.269Z,90.72
2023-05-21T20:50:17.698Z,90.54
2023-05-21T20:52:47.001Z,90.33
2023-05-21T20:55:14.782Z,89.62
2023-05-21T20:57:42.158Z,89.43
2023-05-21T21:00:11.845Z,89.17
2023-05-21T21:02:38.881Z,89.77
2023-05-21T21:05:06.231Z,88.89
2023-05-21T21:07:34.148Z,90.93
2023-05-21T21:10:01.478Z,91.26
2023-05-21T21:12:28.516Z,92.52
2023-05-21T21:14:55.746Z,92.00
2023-05-21T21:17:22.663Z,93.45
2023-05-21T21:19:49.279Z,93.75
2023-05-21T21:22:16.308Z,92.73
2023-05-21T21:24:42.932Z,90.71
2023-05-21T21:27:09.764Z,91.48
2023-05-21T21:29:36.423Z,91.96
2023-05-21T21:32:03.146Z,92.55
2023-05-21T21:34:29.843Z,91.79
2023-05-21T21:36:56.569Z,92.21
2023-05-21T21:39:23.227Z,92.70
2023-05-21T21:41:49.834Z,92.65
2023-05-21T21:44:16.453Z,92.36
2023-05-21T21:46:43.081Z,94.15
2023-05-21T21:49:09.733Z,93.16
2023-05-21T21:51:37.042Z,93.79
2023-05-21T21:54:04.171Z,94.82
2023-05-21T21:56:30.969Z,93.36
2023-05-21T21:58:57.620Z,93.86
2023-05-21T22:01:24.292Z,96.71
2023-05-21T22:03:50.955Z,96.19
2023-05-21T22:06:17.681Z,96.21
2023-05-21T22:08:44.480Z,96.24
2023-05-21T22:11:11.618Z,96.14
2023-05-21T22:13:38.522Z,95.91
2023-05-21T22:16:05.506Z,95.69
2023-05-21T22:18:40.923Z,93.75
2023-05-21T22:21:10.003Z,92.70
2023-05-21T22:23:37.671Z,93.51
2023-05-21T22:26:04.576Z,92.78
2023-05-21T22:28:31.187Z,93.38
2023-05-21T22:30:58.618Z,91.58
2023-05-21T22:33:26.756Z,91.07
2023-05-21T22:35:54.265Z,90.54
2023-05-21T22:38:21.002Z,88.37
2023-05-21T22:40:47.718Z,84.17
2023-05-21T22:43:14.514Z,82.18
2023-05-21T22:45:41.174Z,79.28
2023-05-21T22:48:09.466Z,77.04
2023-05-21T22:50:38.608Z,76.42
2023-05-21T22:53:06.242Z,72.46
2023-05-21T22:55:32.954Z,71.59
2023-05-21T22:57:59.635Z,73.59
2023-05-21T23:00:26.657Z,72.06
2023-05-21T23:02:54.583Z,72.68
2023-05-21T23:05:21.773Z,73.23
2023-05-21T23:07:48.482Z,73.84
2023-05-21T23:10:15.070Z,73.77
2023-05-21T23:12:41.679Z,72.43
2023-05-21T23:15:09.983Z,71.27
2023-05-21T23:17:37.624Z,71.78
2023-05-21T23:20:05.643Z,71.63
2023-05-21T23:22:32.400Z,71.30
2023-05-21T23:24:59.043Z,71.06
2023-05-21T23:27:25.708Z,69.82
2023-05-21T23:29:52.374Z,68.71
2023-05-21T23:32:19.245Z,67.77
2023-05-21T23:34:45.918Z,65.90
2023-05-21T23:37:12.719Z,67.25
2023-05-21T23:39:39.921Z,67.05
2023-05-21T23:42:06.854Z,66.64
2023-05-21T23:44:33.515Z,67.59
2023-05-21T23:47:00.159Z,68.18
2023-05-21T23:49:26.862Z,67.47
2023-05-21T23:51:53.741Z,67.25
2023-05-21T23:54:20.445Z,66.13
2023-05-21T23:56:47.586Z,66.96
2023-05-21T23:59:15.678Z,64.88
